Terminal Aerodrome Forecast
Issued by NWS

Home | Current Version | Previous Version | Text Only | Print | Product List | Glossary On
Versions: 1 2 3 4 5 6 7 8 9 10 11 12 13 14 15 16 17 18 19 20 21 22 23 24 25 26
502
FTUS41 KBTV 252330
TAFSLK
TAF
KSLK 252330Z 2600/2624 21010G16KT P6SM SCT250
     FM260400 24008KT P6SM FEW250
     FM260700 24006KT P6SM FEW035
     FM261500 24013G20KT P6SM SCT050=

USA.gov is the U.S. government's official web portal to all federal, state and local government web resources and services.